Time;durP1;ratioP1;P1;durP2;ratioP2;P2;SDS_P1;SDS_P2;PMS_P1;PMS_P2;Temp;Humidity;BMP_temperature;BMP_pressure;BME280_temperature;BME280_humidity;BME280_pressure;Samples;Min_cycle;Max_cycle;Signal;HPM_P1;HPM_P2
2021/08/26 13:55:47;;;;;;;37.53;19.57;;;;;;;;;;4968570;27;60717;-55
2021/08/26 13:58:13;;;;;;;47.10;24.43;;;;;;;;;;5022391;28;20445;-54
2021/08/26 14:00:40;;;;;;;30.70;15.60;;;;;;;;;;5075966;28;20456;-54
2021/08/26 14:03:06;;;;;;;21.67;11.70;;;;;;;;;;5075611;28;20216;-53
2021/08/26 15:01:24;;;;;;;7.77;2.57;;;;;;;;;;5094395;27;20545;-72
2021/08/26 15:03:51;;;;;;;5.20;1.90;;;;;;;;;;5083629;28;20213;-73
2021/08/26 15:06:18;;;;;;;5.67;1.53;;;;;;;;;;5080777;28;20347;-73
2021/08/26 15:08:44;;;;;;;3.77;1.20;;;;;;;;;;5081800;28;20266;-73
2021/08/26 15:11:11;;;;;;;3.33;1.27;;;;;;;;;;5085364;28;20227;-73
2021/08/26 15:13:37;;;;;;;3.33;1.10;;;;;;;;;;5066921;27;20385;-73
2021/08/26 15:16:04;;;;;;;3.57;1.00;;;;;;;;;;4934640;28;20813;-74
2021/08/26 15:18:33;;;;;;;2.70;0.73;;;;;;;;;;5043646;28;20212;-73
2021/08/26 15:21:01;;;;;;;3.43;0.67;;;;;;;;;;5040550;28;20260;-73
2021/08/26 15:23:28;;;;;;;7.00;1.00;;;;;;;;;;5041195;28;20653;-73
2021/08/26 15:25:54;;;;;;;1.37;0.70;;;;;;;;;;5041536;28;20218;-73
2021/08/26 15:28:21;;;;;;;3.90;0.90;;;;;;;;;;5041866;28;20223;-73
2021/08/26 15:30:47;;;;;;;4.00;1.23;;;;;;;;;;5042951;28;20213;-73
2021/08/26 15:33:14;;;;;;;4.57;0.90;;;;;;;;;;5040811;28;20217;-73
2021/08/26 15:35:42;;;;;;;4.10;0.77;;;;;;;;;;5042806;28;20546;-74
2021/08/26 15:38:09;;;;;;;5.47;1.33;;;;;;;;;;5041675;28;20220;-73
2021/08/26 15:40:39;;;;;;;5.83;0.90;;;;;;;;;;5041150;28;20244;-73
2021/08/26 15:43:06;;;;;;;7.33;1.20;;;;;;;;;;5041649;28;20210;-73
2021/08/26 15:45:32;;;;;;;4.27;0.90;;;;;;;;;;5045737;28;20260;-74
2021/08/26 15:47:59;;;;;;;4.47;1.17;;;;;;;;;;5043381;28;20658;-73
2021/08/26 15:50:26;;;;;;;4.93;1.10;;;;;;;;;;5041300;28;20205;-73
2021/08/26 15:52:58;;;;;;;7.90;1.10;;;;;;;;;;5045701;28;20217;-73
2021/08/26 15:55:27;;;;;;;6.03;1.40;;;;;;;;;;5042554;28;20215;-73
2021/08/26 15:58:14;;;;;;;8.57;1.37;;;;;;;;;;5035508;28;20231;-73
2021/08/26 16:00:44;;;;;;;5.27;1.03;;;;;;;;;;5043445;28;20279;-73
2021/08/26 16:03:11;;;;;;;6.03;2.20;;;;;;;;;;5042071;28;20667;-73
2021/08/26 16:05:40;;;;;;;4.87;1.40;;;;;;;;;;5042054;28;20225;-73
2021/08/26 16:08:08;;;;;;;7.83;1.50;;;;;;;;;;5043159;28;20251;-72
2021/08/26 16:10:34;;;;;;;4.63;1.20;;;;;;;;;;5042671;28;20575;-73
2021/08/26 16:13:01;;;;;;;4.33;1.23;;;;;;;;;;5025849;28;20212;-73
2021/08/26 16:15:27;;;;;;;6.00;1.10;;;;;;;;;;5029646;28;20267;-73
2021/08/26 16:17:54;;;;;;;6.53;1.73;;;;;;;;;;5029857;28;20273;-73
2021/08/26 16:20:20;;;;;;;4.87;1.10;;;;;;;;;;5028487;28;20236;-73
2021/08/26 16:22:47;;;;;;;3.00;1.23;;;;;;;;;;5029337;28;20216;-73
2021/08/26 16:25:16;;;;;;;3.93;1.00;;;;;;;;;;5028598;28;20234;-73
2021/08/26 16:27:44;;;;;;;2.17;1.20;;;;;;;;;;5029908;28;20223;-73
2021/08/26 16:30:12;;;;;;;5.00;1.40;;;;;;;;;;5031386;28;20204;-75
2021/08/26 16:32:39;;;;;;;4.70;1.10;;;;;;;;;;5030217;28;20581;-73
2021/08/26 16:35:06;;;;;;;5.63;1.33;;;;;;;;;;5028222;28;20208;-73
2021/08/26 16:37:35;;;;;;;3.60;1.10;;;;;;;;;;5028618;28;20222;-73
2021/08/26 16:40:04;;;;;;;4.40;1.10;;;;;;;;;;5027959;28;20240;-73
2021/08/26 16:42:32;;;;;;;3.40;0.97;;;;;;;;;;5029640;28;20221;-73
2021/08/26 16:44:59;;;;;;;3.33;1.23;;;;;;;;;;5027775;28;20329;-73
2021/08/26 16:47:26;;;;;;;4.50;1.53;;;;;;;;;;5030112;28;20277;-73
2021/08/26 16:49:52;;;;;;;5.60;1.30;;;;;;;;;;5028465;28;20222;-73
2021/08/26 16:52:20;;;;;;;7.23;1.40;;;;;;;;;;5027316;28;20228;-73
2021/08/26 16:54:46;;;;;;;3.17;1.30;;;;;;;;;;5027304;28;20236;-73
2021/08/26 16:57:12;;;;;;;5.00;1.37;;;;;;;;;;5029707;28;20214;-73
2021/08/26 16:59:40;;;;;;;6.53;1.70;;;;;;;;;;5029002;28;20637;-73
2021/08/26 17:02:07;;;;;;;3.70;1.10;;;;;;;;;;5027716;28;20206;-73
2021/08/26 17:04:34;;;;;;;3.77;1.20;;;;;;;;;;5027391;28;20720;-73
2021/08/26 17:07:01;;;;;;;5.60;1.27;;;;;;;;;;5028627;28;20255;-73
2021/08/26 17:09:29;;;;;;;3.10;1.40;;;;;;;;;;5027934;28;20224;-73
2021/08/26 17:11:56;;;;;;;3.57;1.17;;;;;;;;;;5027366;28;20764;-73
2021/08/26 17:14:23;;;;;;;5.03;1.20;;;;;;;;;;5028012;28;20852;-73
2021/08/26 17:16:51;;;;;;;3.30;1.40;;;;;;;;;;5029409;28;20222;-75
2021/08/26 17:19:17;;;;;;;4.63;1.17;;;;;;;;;;5030486;28;20221;-73
2021/08/26 17:21:44;;;;;;;4.83;1.40;;;;;;;;;;5029456;28;20276;-73
2021/08/26 17:24:10;;;;;;;5.23;1.10;;;;;;;;;;5025399;28;20235;-73
2021/08/26 17:26:37;;;;;;;3.27;0.90;;;;;;;;;;5028810;28;20219;-73
2021/08/26 17:29:03;;;;;;;4.87;1.40;;;;;;;;;;5026426;28;20261;-73
2021/08/26 17:31:30;;;;;;;8.33;1.40;;;;;;;;;;5026969;28;20672;-73
2021/08/26 17:33:57;;;;;;;4.57;1.30;;;;;;;;;;5027164;28;20202;-73
2021/08/26 17:36:24;;;;;;;5.33;1.40;;;;;;;;;;5026437;28;20257;-73
2021/08/26 17:38:50;;;;;;;7.40;1.70;;;;;;;;;;5025761;28;20217;-73
2021/08/26 17:41:17;;;;;;;3.37;0.93;;;;;;;;;;5028025;28;20300;-73
2021/08/26 17:43:43;;;;;;;4.17;1.30;;;;;;;;;;5026082;28;20215;-74
2021/08/26 17:46:10;;;;;;;2.67;1.00;;;;;;;;;;5026199;28;20265;-73
2021/08/26 17:48:36;;;;;;;6.00;1.50;;;;;;;;;;5026495;28;20245;-74
2021/08/26 17:51:04;;;;;;;4.87;1.53;;;;;;;;;;5026708;28;20597;-74
2021/08/26 17:53:31;;;;;;;6.70;1.33;;;;;;;;;;5024311;28;20237;-73
2021/08/26 17:55:57;;;;;;;6.40;1.60;;;;;;;;;;5026343;28;20284;-73
2021/08/26 17:58:24;;;;;;;4.73;1.20;;;;;;;;;;5025413;28;20293;-73
2021/08/26 18:00:51;;;;;;;4.47;1.10;;;;;;;;;;5026831;28;20253;-73
2021/08/26 18:03:17;;;;;;;6.63;1.30;;;;;;;;;;5025585;28;20256;-74
2021/08/26 18:05:45;;;;;;;3.87;1.20;;;;;;;;;;5023816;28;20591;-74
2021/08/26 18:08:13;;;;;;;5.20;1.13;;;;;;;;;;5027583;28;20235;-74
2021/08/26 18:10:40;;;;;;;3.77;1.20;;;;;;;;;;5028555;28;20223;-74
2021/08/26 18:13:06;;;;;;;7.00;1.43;;;;;;;;;;5026455;28;20691;-74
2021/08/26 18:15:34;;;;;;;3.10;1.00;;;;;;;;;;5028410;28;20242;-74
2021/08/26 18:18:00;;;;;;;5.17;1.20;;;;;;;;;;5025870;28;20230;-74
2021/08/26 18:20:27;;;;;;;6.50;1.60;;;;;;;;;;5026681;28;20240;-74
2021/08/26 18:22:53;;;;;;;14.20;1.83;;;;;;;;;;5025476;28;20267;-74
2021/08/26 18:25:21;;;;;;;5.10;1.40;;;;;;;;;;5027939;28;20216;-74
2021/08/26 18:27:49;;;;;;;7.20;1.50;;;;;;;;;;5027161;28;20249;-74
2021/08/26 18:30:16;;;;;;;5.90;1.27;;;;;;;;;;5028216;28;20280;-74
2021/08/26 18:32:42;;;;;;;4.73;1.47;;;;;;;;;;5024398;28;20215;-74
2021/08/26 18:35:10;;;;;;;6.73;1.50;;;;;;;;;;5026712;28;20268;-74
2021/08/26 18:37:37;;;;;;;5.43;1.20;;;;;;;;;;5026604;28;20678;-74
2021/08/26 18:40:05;;;;;;;6.60;1.60;;;;;;;;;;5025356;28;20234;-74
2021/08/26 18:42:33;;;;;;;3.00;1.10;;;;;;;;;;5027704;28;20211;-75
2021/08/26 18:45:00;;;;;;;6.47;1.20;;;;;;;;;;5025892;28;20226;-74
2021/08/26 18:47:27;;;;;;;4.53;1.10;;;;;;;;;;5026013;28;20252;-74
2021/08/26 18:49:54;;;;;;;4.60;1.00;;;;;;;;;;5025472;28;20626;-74
2021/08/26 18:52:22;;;;;;;5.53;1.47;;;;;;;;;;5026936;28;20204;-74
2021/08/26 18:54:49;;;;;;;6.70;1.20;;;;;;;;;;5027570;28;20223;-74
2021/08/26 18:57:18;;;;;;;5.80;1.20;;;;;;;;;;5026837;28;20707;-74
2021/08/26 18:59:46;;;;;;;6.83;1.40;;;;;;;;;;5026847;28;20230;-74
2021/08/26 19:02:12;;;;;;;3.93;1.07;;;;;;;;;;5025843;28;20294;-74
2021/08/26 19:04:39;;;;;;;8.57;1.50;;;;;;;;;;5024192;28;20721;-75
2021/08/26 19:07:06;;;;;;;4.93;1.17;;;;;;;;;;5028352;28;20225;-75
2021/08/26 19:09:32;;;;;;;4.47;1.30;;;;;;;;;;5027371;28;20269;-75
2021/08/26 19:11:59;;;;;;;5.30;1.57;;;;;;;;;;5024148;28;20217;-74
2021/08/26 19:14:25;;;;;;;7.20;1.30;;;;;;;;;;5025338;28;20238;-75
2021/08/26 19:16:53;;;;;;;9.63;1.13;;;;;;;;;;5029463;28;20222;-74
2021/08/26 19:19:20;;;;;;;6.10;1.27;;;;;;;;;;5025935;28;20744;-75
2021/08/26 19:21:46;;;;;;;7.07;1.20;;;;;;;;;;5029026;28;20308;-74
2021/08/26 19:24:13;;;;;;;4.13;1.10;;;;;;;;;;5027638;28;20236;-74
2021/08/26 19:26:39;;;;;;;4.77;1.40;;;;;;;;;;5026409;28;20212;-74
2021/08/26 19:29:05;;;;;;;8.30;1.40;;;;;;;;;;5027271;28;20266;-74
2021/08/26 19:31:32;;;;;;;7.50;1.50;;;;;;;;;;5026280;28;20225;-74
2021/08/26 19:34:00;;;;;;;5.70;1.57;;;;;;;;;;5026354;28;20262;-74
2021/08/26 19:36:26;;;;;;;5.63;1.50;;;;;;;;;;5028930;28;20212;-74
2021/08/26 19:38:53;;;;;;;4.37;1.10;;;;;;;;;;5027765;28;20235;-75
2021/08/26 19:41:20;;;;;;;6.20;1.50;;;;;;;;;;5026686;28;20555;-75
2021/08/26 19:43:47;;;;;;;5.60;1.27;;;;;;;;;;5027349;28;20707;-75
2021/08/26 19:46:13;;;;;;;6.03;1.17;;;;;;;;;;5028448;28;20220;-75
2021/08/26 19:48:40;;;;;;;5.20;1.10;;;;;;;;;;5032045;28;20584;-75
2021/08/26 19:51:07;;;;;;;4.37;1.40;;;;;;;;;;5033477;28;20209;-75
2021/08/26 19:53:34;;;;;;;8.17;0.97;;;;;;;;;;5029601;28;20298;-74
2021/08/26 19:56:00;;;;;;;4.97;1.07;;;;;;;;;;5033084;28;20294;-74
2021/08/26 19:58:26;;;;;;;9.07;1.50;;;;;;;;;;5027325;28;20209;-75
2021/08/26 20:00:53;;;;;;;6.37;1.13;;;;;;;;;;5028686;28;20359;-75
2021/08/26 20:03:19;;;;;;;7.73;1.00;;;;;;;;;;5031874;28;20581;-75
2021/08/26 20:05:46;;;;;;;5.40;1.57;;;;;;;;;;5027785;28;20206;-75
2021/08/26 20:08:13;;;;;;;7.13;1.27;;;;;;;;;;5028937;28;20278;-74
2021/08/26 20:10:40;;;;;;;4.23;0.90;;;;;;;;;;5033190;28;20214;-74
2021/08/26 20:13:06;;;;;;;3.33;0.80;;;;;;;;;;5030496;28;20216;-75
2021/08/26 20:15:32;;;;;;;5.13;1.50;;;;;;;;;;5030624;28;20282;-75
2021/08/26 20:17:59;;;;;;;4.90;1.20;;;;;;;;;;5030138;28;20350;-74
2021/08/26 20:20:26;;;;;;;7.63;1.47;;;;;;;;;;5029847;28;20243;-75
2021/08/26 20:22:52;;;;;;;5.70;1.17;;;;;;;;;;5029865;28;20753;-75
2021/08/26 20:25:20;;;;;;;5.73;1.33;;;;;;;;;;5031359;28;20217;-75
2021/08/26 20:27:47;;;;;;;11.10;1.27;;;;;;;;;;5030409;28;20246;-75
2021/08/26 20:30:15;;;;;;;4.20;1.17;;;;;;;;;;5028416;28;20248;-75
2021/08/26 20:32:43;;;;;;;7.93;1.40;;;;;;;;;;5030244;28;20261;-75
2021/08/26 20:35:10;;;;;;;5.20;1.10;;;;;;;;;;5030580;28;20215;-75
2021/08/26 20:37:36;;;;;;;8.23;1.37;;;;;;;;;;5030658;28;20226;-74
2021/08/26 20:40:03;;;;;;;3.17;1.00;;;;;;;;;;5029259;28;20764;-75
2021/08/26 20:42:31;;;;;;;5.33;1.20;;;;;;;;;;5029263;28;20870;-75
2021/08/26 20:44:57;;;;;;;11.23;1.20;;;;;;;;;;5028511;28;20222;-75
2021/08/26 20:47:24;;;;;;;5.07;1.27;;;;;;;;;;5031600;28;20211;-75
2021/08/26 20:49:51;;;;;;;5.07;0.93;;;;;;;;;;5029198;28;20551;-75
2021/08/26 20:52:17;;;;;;;4.07;1.33;;;;;;;;;;5031736;28;20211;-75
2021/08/26 20:54:44;;;;;;;5.93;1.03;;;;;;;;;;5029178;28;20378;-75
2021/08/26 20:57:10;;;;;;;6.80;1.20;;;;;;;;;;5029676;28;20219;-75
2021/08/26 20:59:38;;;;;;;5.77;1.10;;;;;;;;;;5029587;28;20252;-75
2021/08/26 21:02:05;;;;;;;3.00;1.40;;;;;;;;;;5027484;28;20246;-75
2021/08/26 21:04:31;;;;;;;4.40;1.07;;;;;;;;;;5031305;28;20261;-74
2021/08/26 21:06:58;;;;;;;5.40;0.97;;;;;;;;;;5031186;28;20223;-75
2021/08/26 21:09:24;;;;;;;6.40;1.10;;;;;;;;;;5030272;28;20285;-75
2021/08/26 21:11:51;;;;;;;6.87;1.17;;;;;;;;;;5031753;28;20215;-74
2021/08/26 21:14:17;;;;;;;10.10;1.27;;;;;;;;;;5031148;28;20736;-75
2021/08/26 21:16:45;;;;;;;7.53;1.20;;;;;;;;;;5031779;28;20204;-75
2021/08/26 21:19:11;;;;;;;6.70;1.20;;;;;;;;;;5027139;28;20211;-75
2021/08/26 21:21:38;;;;;;;9.67;1.53;;;;;;;;;;5028260;28;20242;-75
2021/08/26 21:24:10;;;;;;;9.67;1.17;;;;;;;;;;5029966;28;20227;-75
2021/08/26 21:26:36;;;;;;;5.23;1.33;;;;;;;;;;5030675;28;20706;-75
2021/08/26 21:29:03;;;;;;;14.07;2.00;;;;;;;;;;5029046;28;20808;-75
2021/08/26 21:31:29;;;;;;;4.17;1.07;;;;;;;;;;5031744;28;20215;-75
2021/08/26 21:33:57;;;;;;;6.73;1.43;;;;;;;;;;5027919;28;20199;-75
2021/08/26 21:36:24;;;;;;;6.30;1.47;;;;;;;;;;5029128;28;20631;-75
2021/08/26 21:38:50;;;;;;;7.40;1.47;;;;;;;;;;5028158;28;20232;-75
2021/08/26 21:41:17;;;;;;;6.13;1.40;;;;;;;;;;5027784;28;20210;-75
2021/08/26 21:43:43;;;;;;;5.60;1.20;;;;;;;;;;5028752;28;20216;-75
2021/08/26 21:46:10;;;;;;;8.30;2.07;;;;;;;;;;5028810;28;20220;-75
2021/08/26 21:48:36;;;;;;;3.37;0.90;;;;;;;;;;5030276;28;20762;-75
2021/08/26 21:51:04;;;;;;;10.43;1.40;;;;;;;;;;5028698;28;20225;-74
2021/08/26 21:53:31;;;;;;;5.37;1.30;;;;;;;;;;5028520;28;20278;-75
2021/08/26 21:55:57;;;;;;;6.13;1.10;;;;;;;;;;5027102;28;20215;-75
2021/08/26 21:58:23;;;;;;;6.67;1.50;;;;;;;;;;5030053;28;20212;-75
2021/08/26 22:00:50;;;;;;;7.10;0.93;;;;;;;;;;5027645;28;20248;-75
2021/08/26 22:03:16;;;;;;;3.93;1.20;;;;;;;;;;5031032;28;20235;-74
2021/08/26 22:05:43;;;;;;;8.87;1.40;;;;;;;;;;5030313;28;20730;-74
2021/08/26 22:08:10;;;;;;;6.43;1.63;;;;;;;;;;5025292;28;21127;-75
2021/08/26 22:10:38;;;;;;;6.30;1.30;;;;;;;;;;5029868;28;20215;-74
2021/08/26 22:13:04;;;;;;;4.33;1.20;;;;;;;;;;5028238;28;20268;-75
2021/08/26 22:15:30;;;;;;;7.30;1.43;;;;;;;;;;5030604;28;20242;-74
2021/08/26 22:17:57;;;;;;;4.50;1.33;;;;;;;;;;5026835;28;20637;-75
2021/08/26 22:20:25;;;;;;;7.97;1.63;;;;;;;;;;5029203;28;20215;-75
2021/08/26 22:22:51;;;;;;;7.07;1.33;;;;;;;;;;5027507;28;20240;-75
2021/08/26 22:25:19;;;;;;;10.63;1.67;;;;;;;;;;5028097;28;20217;-74
2021/08/26 22:27:46;;;;;;;7.07;1.73;;;;;;;;;;5027871;28;20698;-74
2021/08/26 22:30:13;;;;;;;5.63;1.30;;;;;;;;;;5029521;28;20219;-74
2021/08/26 22:32:40;;;;;;;6.57;1.13;;;;;;;;;;5030641;28;20215;-74
2021/08/26 22:35:08;;;;;;;4.90;1.20;;;;;;;;;;5026259;28;20212;-74
2021/08/26 22:37:34;;;;;;;4.40;1.20;;;;;;;;;;5028264;28;20223;-74
2021/08/26 22:40:01;;;;;;;5.13;1.50;;;;;;;;;;5027004;28;20284;-74
2021/08/26 22:42:32;;;;;;;4.03;1.07;;;;;;;;;;5028314;28;20243;-74
2021/08/26 22:44:58;;;;;;;6.77;1.43;;;;;;;;;;5026745;28;20732;-75
2021/08/26 22:47:25;;;;;;;5.23;1.30;;;;;;;;;;5026391;28;20597;-75
2021/08/26 22:49:51;;;;;;;11.23;1.37;;;;;;;;;;5027694;28;20208;-74
2021/08/26 22:52:18;;;;;;;6.93;1.23;;;;;;;;;;5026563;28;20216;-75
2021/08/26 22:54:44;;;;;;;3.77;1.13;;;;;;;;;;5028203;28;20236;-74
2021/08/26 22:57:13;;;;;;;6.10;1.20;;;;;;;;;;5028690;28;20216;-74
2021/08/26 22:59:41;;;;;;;4.73;1.27;;;;;;;;;;5028009;28;20289;-75
2021/08/26 23:02:10;;;;;;;8.70;1.47;;;;;;;;;;5027746;28;20285;-74
2021/08/26 23:04:37;;;;;;;5.57;1.30;;;;;;;;;;5027210;28;20213;-75
2021/08/26 23:07:04;;;;;;;2.70;1.20;;;;;;;;;;5024509;28;20217;-75
2021/08/26 23:09:31;;;;;;;5.87;1.77;;;;;;;;;;5028173;28;20290;-74
2021/08/26 23:11:57;;;;;;;10.53;1.63;;;;;;;;;;5027609;28;20261;-74
2021/08/26 23:14:23;;;;;;;6.53;1.50;;;;;;;;;;5026596;28;20240;-74
2021/08/26 23:16:51;;;;;;;6.30;1.60;;;;;;;;;;5029617;28;20820;-74
2021/08/26 23:19:18;;;;;;;2.83;1.20;;;;;;;;;;5029958;28;20220;-74
2021/08/26 23:21:44;;;;;;;7.13;1.57;;;;;;;;;;5029385;28;20224;-74
2021/08/26 23:24:11;;;;;;;5.30;1.20;;;;;;;;;;5030324;28;20722;-74
2021/08/26 23:26:37;;;;;;;5.00;1.20;;;;;;;;;;5032077;28;20324;-75
2021/08/26 23:29:03;;;;;;;8.60;1.90;;;;;;;;;;5033055;28;20211;-74
2021/08/26 23:31:30;;;;;;;3.93;1.37;;;;;;;;;;5033478;28;20635;-75
2021/08/26 23:33:58;;;;;;;12.50;2.10;;;;;;;;;;5033763;28;20201;-75
2021/08/26 23:36:24;;;;;;;6.60;1.57;;;;;;;;;;5030694;28;20215;-74
2021/08/26 23:38:50;;;;;;;9.30;1.47;;;;;;;;;;5030657;28;20240;-74
2021/08/26 23:41:17;;;;;;;6.70;1.37;;;;;;;;;;5030927;28;20531;-75
2021/08/26 23:43:43;;;;;;;16.77;1.97;;;;;;;;;;5032654;28;20235;-75
2021/08/26 23:46:09;;;;;;;7.90;1.53;;;;;;;;;;5032464;28;20219;-74
2021/08/26 23:48:36;;;;;;;6.67;1.40;;;;;;;;;;5030800;28;20265;-74
2021/08/26 23:51:04;;;;;;;5.07;1.20;;;;;;;;;;5030118;28;20646;-74
2021/08/26 23:53:30;;;;;;;6.20;1.83;;;;;;;;;;5028771;28;20301;-74
2021/08/26 23:55:56;;;;;;;7.03;1.97;;;;;;;;;;5030617;28;20276;-74
2021/08/26 23:58:23;;;;;;;7.73;2.27;;;;;;;;;;5030066;28;20241;-74
